Time;durP1;ratioP1;P1;durP2;ratioP2;P2;SDS_P1;SDS_P2;PMS_P1;PMS_P2;Temp;Humidity;BMP_temperature;BMP_pressure;BME280_temperature;BME280_humidity;BME280_pressure;Samples;Min_cycle;Max_cycle;Signal;HPM_P1;HPM_P2
2022/11/15 00:01:09;;;;;;;36.38;10.43;;;;;;;2.79;100.00;93767.34;4870231;29;20052;-54
2022/11/15 00:03:36;;;;;;;25.60;10.00;;;;;;;2.87;100.00;93759.31;4877138;29;20057;-55
2022/11/15 00:06:04;;;;;;;94.18;12.73;;;;;;;2.75;100.00;93763.81;4877253;29;20446;-53
2022/11/15 00:08:31;;;;;;;100.03;11.57;;;;;;;2.81;100.00;93769.69;4877455;29;20122;-51
2022/11/15 00:11:00;;;;;;;37.90;10.00;;;;;;;2.88;100.00;93758.13;4860105;29;20132;-54
2022/11/15 00:13:27;;;;;;;56.95;10.65;;;;;;;2.87;100.00;93762.00;4861171;29;20089;-53
2022/11/15 00:15:58;;;;;;;55.30;10.48;;;;;;;2.82;100.00;93759.63;4876865;29;20100;-58
2022/11/15 00:18:25;;;;;;;37.53;10.60;;;;;;;2.84;100.00;93762.75;4877397;29;20067;-55
2022/11/15 00:20:51;;;;;;;38.43;9.13;;;;;;;2.92;100.00;93762.47;4877063;29;20053;-56
2022/11/15 00:23:18;;;;;;;19.73;9.15;;;;;;;2.98;100.00;93757.50;4877067;29;20554;-54
2022/11/15 00:25:45;;;;;;;26.65;8.55;;;;;;;3.04;100.00;93749.78;4877119;29;20047;-56
2022/11/15 00:28:12;;;;;;;43.15;8.57;;;;;;;3.06;100.00;93750.19;4876906;29;20053;-56
2022/11/15 00:30:38;;;;;;;112.10;10.30;;;;;;;2.92;100.00;93748.91;4876601;29;20049;-54
2022/11/15 00:33:06;;;;;;;28.43;8.90;;;;;;;3.02;100.00;93743.97;4877026;29;20057;-53
2022/11/15 00:35:34;;;;;;;31.13;10.35;;;;;;;3.16;100.00;93744.91;4877052;29;20053;-53
2022/11/15 00:38:02;;;;;;;35.08;9.77;;;;;;;3.23;100.00;93740.69;4876001;29;21909;-53
2022/11/15 00:40:29;;;;;;;45.42;9.25;;;;;;;3.19;100.00;93740.66;4886869;29;20056;-55
2022/11/15 00:42:56;;;;;;;36.92;9.18;;;;;;;3.06;100.00;93739.34;4876245;29;20075;-57
2022/11/15 00:45:24;;;;;;;53.60;9.63;;;;;;;2.94;100.00;93735.78;4877021;29;20057;-54
2022/11/15 00:47:51;;;;;;;72.13;14.52;;;;;;;2.92;100.00;93731.88;4863533;29;20053;-53
2022/11/15 00:50:17;;;;;;;75.07;11.85;;;;;;;2.96;100.00;93735.41;4876707;29;20527;-54
2022/11/15 00:52:44;;;;;;;71.15;11.10;;;;;;;2.92;100.00;93731.88;4876239;29;20053;-53
2022/11/15 00:55:16;;;;;;;38.90;10.80;;;;;;;2.92;100.00;93729.94;4876728;29;20061;-54
2022/11/15 00:57:43;;;;;;;36.73;10.50;;;;;;;2.95;100.00;93726.47;4876385;29;20060;-53
2022/11/15 01:00:11;;;;;;;76.63;10.38;;;;;;;3.09;100.00;93717.72;4875646;29;20068;-55
2022/11/15 01:02:38;;;;;;;80.82;13.27;;;;;;;2.95;100.00;93728.41;4875794;29;20061;-53
2022/11/15 01:05:05;;;;;;;58.58;11.80;;;;;;;3.00;100.00;93717.25;4875845;29;20057;-53
2022/11/15 01:07:32;;;;;;;42.60;10.55;;;;;;;2.87;100.00;93721.34;4876799;29;20558;-50
2022/11/15 01:09:59;;;;;;;177.43;14.10;;;;;;;2.75;100.00;93717.75;4875713;29;20045;-55
2022/11/15 01:12:26;;;;;;;57.85;12.75;;;;;;;2.82;100.00;93717.06;4876323;29;20053;-53
2022/11/15 01:14:52;;;;;;;78.25;12.77;;;;;;;2.76;100.00;93718.53;4876086;29;20117;-52
2022/11/15 01:17:19;;;;;;;57.65;11.90;;;;;;;2.79;100.00;93713.13;4876301;29;20459;-51
2022/11/15 01:19:46;;;;;;;50.20;8.88;;;;;;;2.73;100.00;93720.03;4875624;29;20052;-56
2022/11/15 01:22:12;;;;;;;53.60;8.97;;;;;;;2.78;100.00;93721.66;4876372;29;20052;-54
2022/11/15 01:24:39;;;;;;;80.45;9.20;;;;;;;2.75;100.00;93706.91;4875802;29;20087;-53
2022/11/15 01:27:06;;;;;;;122.32;11.00;;;;;;;2.73;100.00;93713.84;4875705;29;20499;-51
2022/11/15 01:29:32;;;;;;;53.30;12.30;;;;;;;2.58;100.00;93715.63;4876452;29;20061;-51
2022/11/15 01:31:59;;;;;;;151.45;13.65;;;;;;;2.64;100.00;93711.44;4875190;29;20041;-55
2022/11/15 01:34:26;;;;;;;112.40;12.83;;;;;;;2.66;100.00;93708.38;4876311;29;20049;-55
2022/11/15 01:36:52;;;;;;;88.25;10.55;;;;;;;2.63;100.00;93714.50;4875509;29;20053;-50
2022/11/15 01:39:19;;;;;;;86.80;12.45;;;;;;;2.75;100.00;93715.03;4880034;29;20045;-52
2022/11/15 01:41:45;;;;;;;75.45;11.95;;;;;;;2.77;100.00;93706.53;4867091;29;20051;-54
2022/11/15 01:44:49;;;;;;;101.28;10.48;;;;;;;2.63;100.00;93718.00;4875642;29;20043;-54
2022/11/15 01:47:23;;;;;;;142.57;10.53;;;;;;;2.39;100.00;93706.53;4798810;29;20611;-55
2022/11/15 01:49:56;;;;;;;100.13;10.02;;;;;;;2.47;100.00;93704.66;4863424;29;20113;-54
2022/11/15 01:52:26;;;;;;;204.73;14.07;;;;;;;2.45;100.00;93706.19;4875762;29;20056;-56
2022/11/15 01:55:18;;;;;;;81.00;11.43;;;;;;;2.36;100.00;93703.75;4875176;29;20053;-55
2022/11/15 01:57:47;;;;;;;140.98;11.55;;;;;;;2.46;100.00;93699.63;4875281;29;20049;-56
2022/11/15 02:00:15;;;;;;;38.20;11.20;;;;;;;2.60;100.00;93697.06;4875378;29;20049;-57
2022/11/15 02:02:42;;;;;;;90.22;12.77;;;;;;;2.65;100.00;93691.31;4875305;29;20055;-56
2022/11/15 02:05:09;;;;;;;105.18;12.90;;;;;;;2.64;100.00;93687.06;4874998;29;20113;-54
2022/11/15 02:07:37;;;;;;;91.28;10.70;;;;;;;2.53;100.00;93678.03;4875298;29;20499;-53
2022/11/15 02:10:12;;;;;;;62.88;10.68;;;;;;;2.51;100.00;93675.69;4875119;29;20041;-54
2022/11/15 02:12:40;;;;;;;60.33;11.10;;;;;;;2.55;100.00;93670.31;4875059;29;20484;-55
2022/11/15 02:15:08;;;;;;;45.40;10.38;;;;;;;2.62;100.00;93666.88;4875292;29;20107;-55
2022/11/15 02:17:56;;;;;;;32.17;11.00;;;;;;;2.78;100.00;93657.41;4875526;29;20063;-55
2022/11/15 02:20:40;;;;;;;78.60;10.40;;;;;;;2.69;100.00;93659.63;4874259;29;20080;-56
2022/11/15 02:23:43;;;;;;;84.57;10.65;;;;;;;2.58;100.00;93648.69;4874179;29;20845;-57
2022/11/15 02:26:35;;;;;;;53.67;10.10;;;;;;;2.65;100.00;93647.97;4874065;29;20702;-54
2022/11/15 02:29:08;;;;;;;25.40;9.40;;;;;;;2.72;100.00;93645.34;4874162;29;20861;-55
2022/11/15 02:32:02;;;;;;;42.03;9.40;;;;;;;2.80;100.00;93648.91;4875224;29;20045;-50
2022/11/15 02:34:36;;;;;;;27.55;9.48;;;;;;;2.88;100.00;93639.69;4872790;29;20421;-53
2022/11/15 02:37:09;;;;;;;27.27;8.80;;;;;;;2.94;100.00;93648.25;4874039;29;20808;-53
2022/11/15 02:39:44;;;;;;;42.30;8.80;;;;;;;2.78;100.00;93657.41;4863078;29;20461;-55
2022/11/15 02:45:06;;;;;;;40.28;16.65;;;;;;;2.84;100.00;93638.88;4873825;29;20518;-57
2022/11/15 02:47:41;;;;;;;26.95;10.07;;;;;;;2.80;100.00;93638.84;4875110;29;20100;-56
2022/11/15 02:50:15;;;;;;;25.05;9.75;;;;;;;2.86;100.00;93631.16;4857078;29;20435;-54
2022/11/15 02:52:45;;;;;;;40.33;9.20;;;;;;;2.82;100.00;93632.25;4874534;29;20053;-57
2022/11/15 02:55:33;;;;;;;27.73;8.73;;;;;;;2.78;100.00;93638.44;4874675;29;20049;-54
2022/11/15 02:57:59;;;;;;;25.10;9.57;;;;;;;2.88;100.00;93628.03;4874505;29;20045;-55
2022/11/15 03:00:31;;;;;;;19.65;8.57;;;;;;;2.98;100.00;93624.69;4874232;29;20045;-57
2022/11/15 03:03:17;;;;;;;22.52;8.25;;;;;;;2.98;100.00;93616.53;4874235;29;20049;-54
2022/11/15 03:05:50;;;;;;;21.17;8.77;;;;;;;3.04;100.00;93617.75;4874023;29;20144;-56
2022/11/15 03:08:37;;;;;;;24.30;9.10;;;;;;;3.10;100.00;93621.69;4874523;29;20108;-57
2022/11/15 03:11:08;;;;;;;24.50;9.07;;;;;;;3.07;100.00;93617.00;4856688;29;20842;-56
2022/11/15 03:13:44;;;;;;;29.02;9.45;;;;;;;3.02;100.00;93614.63;4874641;29;20055;-55
2022/11/15 03:16:31;;;;;;;27.13;8.98;;;;;;;3.00;100.00;93596.03;4856760;29;20112;-54
2022/11/15 03:19:17;;;;;;;26.83;9.43;;;;;;;2.96;100.00;93610.72;4874117;29;20060;-54
2022/11/15 03:21:45;;;;;;;52.45;17.25;;;;;;;3.05;100.00;93599.56;4874113;29;20053;-57
2022/11/15 03:24:16;;;;;;;35.95;13.93;;;;;;;3.15;100.00;93599.63;4874099;29;20071;-57
2022/11/15 03:26:52;;;;;;;25.55;9.38;;;;;;;3.19;100.00;93596.94;4873727;29;20041;-55
2022/11/15 03:29:29;;;;;;;28.05;9.52;;;;;;;3.27;100.00;93595.84;4854518;29;20112;-57
2022/11/15 03:32:02;;;;;;;24.43;8.83;;;;;;;3.12;100.00;93589.53;4873015;29;20112;-54
2022/11/15 03:34:55;;;;;;;23.58;9.00;;;;;;;3.16;100.00;93593.06;4872923;29;20045;-53
2022/11/15 03:37:30;;;;;;;21.33;8.90;;;;;;;3.30;100.00;93595.09;4872517;29;20053;-55
2022/11/15 03:39:56;;;;;;;22.60;9.23;;;;;;;3.34;100.00;93592.38;4874256;29;20059;-52
2022/11/15 03:42:31;;;;;;;20.75;8.68;;;;;;;3.29;100.00;93585.41;4873784;29;20088;-53
2022/11/15 03:45:16;;;;;;;22.97;8.63;;;;;;;3.02;100.00;93584.81;4873859;29;20697;-54
2022/11/15 03:48:22;;;;;;;21.23;8.02;;;;;;;3.05;100.00;93589.47;4873704;29;20059;-51
2022/11/15 03:50:49;;;;;;;20.73;8.73;;;;;;;3.12;100.00;93584.13;4870607;29;20049;-51
2022/11/15 03:53:17;;;;;;;21.90;8.75;;;;;;;3.17;100.00;93585.69;4874204;29;20116;-52
2022/11/15 03:55:43;;;;;;;22.98;8.82;;;;;;;3.12;100.00;93584.13;4873453;29;20060;-50
2022/11/15 03:58:10;;;;;;;19.30;7.80;;;;;;;2.95;100.00;93576.63;4873894;29;20059;-49
2022/11/15 04:00:37;;;;;;;20.55;9.63;;;;;;;2.89;100.00;93575.41;4873659;29;20041;-51
2022/11/15 04:03:03;;;;;;;23.50;9.70;;;;;;;2.87;100.00;93575.00;4857415;29;20400;-52
2022/11/15 04:05:30;;;;;;;23.25;9.23;;;;;;;2.93;100.00;93568.84;4873903;29;20059;-55
2022/11/15 04:07:57;;;;;;;28.48;9.35;;;;;;;2.93;100.00;93570.78;4873764;29;20049;-52
2022/11/15 04:10:23;;;;;;;28.83;9.87;;;;;;;2.93;100.00;93568.84;4873800;29;20467;-52
2022/11/15 04:12:50;;;;;;;23.10;9.20;;;;;;;2.91;100.00;93567.69;4856744;29;20045;-54
2022/11/15 04:15:19;;;;;;;22.45;9.02;;;;;;;2.80;100.00;93562.97;4873593;29;20057;-54
2022/11/15 04:17:52;;;;;;;21.50;8.52;;;;;;;2.79;100.00;93572.22;4873337;29;20505;-52
2022/11/15 04:26:04;;;;;;;18.08;7.85;;;;;;;2.97;100.00;93563.47;4872759;29;21678;-52
2022/11/15 04:28:30;;;;;;;17.23;8.32;;;;;;;2.96;100.00;93553.78;4873299;29;20055;-51
2022/11/15 04:30:57;;;;;;;17.05;8.18;;;;;;;3.00;100.00;93562.72;4873188;29;20049;-54
2022/11/15 04:33:24;;;;;;;17.05;8.30;;;;;;;3.12;100.00;93553.50;4871813;29;20040;-49
2022/11/15 04:38:37;;;;;;;19.30;9.90;;;;;;;3.28;100.00;93550.50;4873381;29;20061;-51
2022/11/15 04:41:04;;;;;;;21.10;10.18;;;;;;;3.30;100.00;93546.28;4857057;29;20049;-51
2022/11/15 04:43:30;;;;;;;19.48;8.88;;;;;;;3.22;100.00;93541.97;4873129;29;20406;-48
2022/11/15 04:45:58;;;;;;;18.35;8.82;;;;;;;3.25;100.00;93551.28;4856557;29;20045;-51
2022/11/15 04:48:24;;;;;;;15.60;7.43;;;;;;;3.14;100.00;93543.06;4858816;29;20061;-53
2022/11/15 04:50:51;;;;;;;14.73;7.47;;;;;;;3.11;100.00;93543.81;4876443;29;20037;-54
2022/11/15 04:53:18;;;;;;;15.73;7.97;;;;;;;3.10;100.00;93548.47;4860183;29;20085;-54
2022/11/15 04:55:46;;;;;;;18.02;8.40;;;;;;;2.87;100.00;93551.38;4876037;29;20053;-53
2022/11/15 04:58:12;;;;;;;15.43;8.27;;;;;;;2.85;100.00;93551.00;4859980;29;20056;-51
2022/11/15 05:00:39;;;;;;;15.33;7.90;;;;;;;2.84;100.00;93543.22;4876299;29;20075;-50
2022/11/15 05:05:53;;;;;;;16.88;8.43;;;;;;;2.94;100.00;93546.03;4875954;29;20108;-55
2022/11/15 05:08:20;;;;;;;20.58;9.55;;;;;;;2.97;100.00;93539.84;4876168;29;20443;-51
2022/11/15 05:10:47;;;;;;;19.30;9.95;;;;;;;2.95;100.00;93541.38;4875984;29;20057;-54
2022/11/15 05:13:14;;;;;;;16.23;7.93;;;;;;;3.00;100.00;93541.03;4876453;29;20051;-52
2022/11/15 05:15:40;;;;;;;15.32;7.63;;;;;;;2.96;100.00;93540.25;4876093;29;20045;-51
2022/11/15 05:18:07;;;;;;;14.95;7.82;;;;;;;3.03;100.00;93544.94;4859894;29;20055;-54
2022/11/15 05:20:34;;;;;;;16.08;7.40;;;;;;;3.08;100.00;93541.84;4876078;29;20116;-55
2022/11/15 05:23:01;;;;;;;14.93;7.43;;;;;;;3.17;100.00;93537.66;4876072;29;20045;-56
2022/11/15 05:25:27;;;;;;;15.20;8.10;;;;;;;3.18;100.00;93539.22;4876384;29;20053;-57
2022/11/15 05:27:54;;;;;;;18.25;8.55;;;;;;;3.19;100.00;93529.16;4875779;29;20067;-54
2022/11/15 05:30:21;;;;;;;15.30;8.13;;;;;;;3.33;100.00;93531.19;4846551;29;20124;-53
2022/11/15 05:32:48;;;;;;;15.27;8.32;;;;;;;3.36;100.00;93530.41;4875439;29;20056;-55
2022/11/15 05:35:39;;;;;;;16.35;8.65;;;;;;;3.41;100.00;93530.06;4875805;29;20097;-53
2022/11/15 05:38:06;;;;;;;21.57;10.03;;;;;;;3.32;100.00;93526.91;4875326;29;21739;-55
2022/11/15 05:40:34;;;;;;;16.58;8.98;;;;;;;3.41;100.00;93524.63;4886130;29;20104;-56
2022/11/15 05:43:03;;;;;;;15.43;8.15;;;;;;;3.46;100.00;93516.16;4858698;29;20045;-52
2022/11/15 05:45:33;;;;;;;17.02;8.15;;;;;;;3.46;100.00;93518.88;4875593;29;20057;-54
2022/11/15 05:48:04;;;;;;;16.65;8.45;;;;;;;3.34;100.00;93511.03;4875187;29;20049;-56
2022/11/15 05:50:31;;;;;;;18.80;8.83;;;;;;;3.29;100.00;93514.88;4875643;29;20167;-56
2022/11/15 05:52:59;;;;;;;16.88;8.80;;;;;;;3.18;100.00;93520.25;4875611;29;20041;-52
2022/11/15 05:55:31;;;;;;;19.27;9.05;;;;;;;3.29;100.00;93524.97;4858456;29;20048;-55
2022/11/15 05:57:59;;;;;;;17.65;9.38;;;;;;;3.18;100.00;93531.09;4875242;29;20048;-53
2022/11/15 06:00:26;;;;;;;17.52;8.68;;;;;;;3.18;100.00;93522.97;4872274;29;20048;-56
2022/11/15 06:02:52;;;;;;;16.30;7.97;;;;;;;3.22;100.00;93530.31;4874846;29;20053;-55
2022/11/15 06:05:19;;;;;;;15.95;8.55;;;;;;;3.13;100.00;93526.00;4875309;29;20057;-50
2022/11/15 06:07:45;;;;;;;16.25;8.23;;;;;;;3.23;100.00;93524.53;4874896;29;20049;-53
2022/11/15 06:10:12;;;;;;;17.83;8.65;;;;;;;3.29;100.00;93523.03;4875155;29;20055;-59
2022/11/15 06:12:39;;;;;;;16.55;8.75;;;;;;;3.40;100.00;93523.06;4874950;29;20053;-56
2022/11/15 06:15:06;;;;;;;14.93;8.03;;;;;;;3.24;100.00;93525.31;4875602;29;20443;-54
2022/11/15 06:17:33;;;;;;;22.52;10.60;;;;;;;3.10;100.00;93525.97;4874868;29;20049;-54
2022/11/15 06:19:59;;;;;;;14.65;8.25;;;;;;;3.06;100.00;93527.91;4873421;29;20041;-54
2022/11/15 06:22:26;;;;;;;14.73;8.05;;;;;;;3.11;100.00;93522.13;4874888;29;20049;-54
2022/11/15 06:24:52;;;;;;;14.90;8.20;;;;;;;3.19;100.00;93521.78;4874660;29;20057;-54
2022/11/15 06:27:19;;;;;;;16.03;8.17;;;;;;;3.10;100.00;93521.38;4875082;29;20052;-56
2022/11/15 06:29:46;;;;;;;20.10;9.45;;;;;;;3.12;100.00;93524.47;4874505;29;20448;-57
2022/11/15 06:32:12;;;;;;;17.05;8.77;;;;;;;3.27;100.00;93521.84;4874738;29;20060;-56
2022/11/15 06:34:39;;;;;;;14.35;8.52;;;;;;;3.36;100.00;93524.97;4858055;29;20053;-55
2022/11/15 06:37:05;;;;;;;16.50;9.05;;;;;;;3.41;100.00;93521.94;4875104;29;20057;-52
2022/11/15 06:39:32;;;;;;;16.30;8.50;;;;;;;3.55;100.00;93523.94;4880561;29;20498;-52
2022/11/15 06:41:59;;;;;;;18.58;9.40;;;;;;;3.39;100.00;93521.53;4858180;29;20053;-50
2022/11/15 06:44:25;;;;;;;18.02;9.40;;;;;;;3.37;100.00;93521.13;4874489;29;20483;-56
2022/11/15 06:46:52;;;;;;;16.20;9.13;;;;;;;3.56;100.00;93523.56;4874028;29;20045;-55
2022/11/15 06:49:19;;;;;;;19.38;9.85;;;;;;;3.53;100.00;93523.53;4874444;29;20057;-53
2022/11/15 06:51:45;;;;;;;21.10;10.80;;;;;;;3.71;100.00;93524.41;4885824;29;20053;-52
2022/11/15 06:54:12;;;;;;;22.17;11.75;;;;;;;3.67;100.00;93526.31;4874859;29;20462;-52
2022/11/15 06:56:38;;;;;;;17.90;9.45;;;;;;;3.87;100.00;93526.78;4842148;29;20065;-54
2022/11/15 06:59:05;;;;;;;18.75;8.55;;;;;;;3.90;100.00;93526.00;4874569;29;20049;-53
2022/11/15 07:01:32;;;;;;;19.17;9.55;;;;;;;3.87;100.00;93528.72;4852303;29;20053;-52
2022/11/15 07:03:58;;;;;;;16.73;8.60;;;;;;;4.03;100.00;93525.69;4874191;29;20059;-50
2022/11/15 07:06:25;;;;;;;16.50;8.23;;;;;;;4.02;100.00;93524.13;4874014;29;20057;-52
2022/11/15 07:08:52;;;;;;;15.27;8.00;;;;;;;4.09;100.00;93521.44;4873760;29;20041;-54
2022/11/15 07:11:18;;;;;;;14.48;8.18;;;;;;;4.27;100.00;93521.47;4873734;29;20061;-51
2022/11/15 07:13:45;;;;;;;22.00;11.32;;;;;;;4.44;100.00;93520.72;4857071;29;20084;-52
2022/11/15 07:16:12;;;;;;;19.87;9.67;;;;;;;4.68;100.00;93519.19;4857665;29;20059;-55
2022/11/15 07:18:40;;;;;;;16.17;8.35;;;;;;;4.86;100.00;93524.63;4873712;29;20108;-51
2022/11/15 07:21:10;;;;;;;18.35;10.68;;;;;;;4.86;100.00;93519.19;4874165;29;20452;-55
2022/11/15 07:23:38;;;;;;;14.30;8.48;;;;;;;4.64;100.00;93520.38;4873626;29;20055;-50
2022/11/15 07:26:05;;;;;;;12.98;7.50;;;;;;;4.77;100.00;93521.53;4874625;29;20415;-53
2022/11/15 07:28:32;;;;;;;12.83;7.43;;;;;;;4.99;100.00;93514.94;4873959;29;20051;-53
2022/11/15 07:31:06;;;;;;;15.80;7.63;;;;;;;4.93;100.00;93516.50;4872782;29;20052;-53
2022/11/15 07:33:34;;;;;;;13.20;7.15;;;;;;;5.00;100.00;93518.41;4871309;29;20108;-56
2022/11/15 07:36:03;;;;;;;17.20;10.95;;;;;;;4.88;100.00;93513.38;4877884;29;20530;-53
2022/11/15 07:38:33;;;;;;;19.75;9.45;;;;;;;4.77;100.00;93514.16;4873202;29;20048;-50
2022/11/15 07:41:07;;;;;;;17.43;9.43;;;;;;;4.79;100.00;93514.53;4875567;29;21389;-54
2022/11/15 07:43:35;;;;;;;16.30;8.55;;;;;;;4.87;100.00;93512.63;4857026;29;20053;-53
2022/11/15 07:46:08;;;;;;;17.83;8.93;;;;;;;5.25;100.00;93512.97;4872837;29;21557;-50
2022/11/15 07:48:36;;;;;;;20.80;11.18;;;;;;;5.59;100.00;93512.47;4871578;29;20053;-51
2022/11/15 07:51:15;;;;;;;22.05;11.43;;;;;;;5.69;100.00;93517.13;4873018;29;20422;-54
2022/11/15 07:53:44;;;;;;;19.53;9.67;;;;;;;5.99;100.00;93515.88;4873460;29;20049;-51
2022/11/15 07:56:12;;;;;;;18.40;10.05;;;;;;;5.88;100.00;93513.16;4873820;29;20063;-54
2022/11/15 07:58:39;;;;;;;18.02;9.95;;;;;;;5.86;100.00;93510.06;4873401;29;20053;-52
2022/11/15 08:01:07;;;;;;;18.23;9.52;;;;;;;6.03;100.00;93507.69;4872509;29;20410;-54
2022/11/15 08:03:34;;;;;;;17.23;9.30;;;;;;;6.05;100.00;93503.38;4873962;29;20484;-52
2022/11/15 08:06:02;;;;;;;19.37;9.13;;;;;;;6.42;100.00;93507.50;4873349;29;20880;-53
2022/11/15 08:08:28;;;;;;;16.48;8.63;;;;;;;6.72;100.00;93506.09;4873616;29;20049;-55
2022/11/15 08:10:57;;;;;;;14.90;9.05;;;;;;;6.36;99.82;93507.13;4873706;29;20108;-53
2022/11/15 08:13:24;;;;;;;16.77;9.38;;;;;;;6.11;100.00;93509.19;4873935;29;20498;-52
2022/11/15 08:15:51;;;;;;;15.73;8.50;;;;;;;6.13;100.00;93502.19;4873293;29;20084;-52
2022/11/15 08:18:23;;;;;;;15.83;9.23;;;;;;;6.29;100.00;93506.38;4874020;29;20041;-52
2022/11/15 08:20:50;;;;;;;16.38;9.30;;;;;;;6.20;100.00;93495.94;4869048;29;20060;-52
2022/11/15 08:23:16;;;;;;;17.98;9.93;;;;;;;6.10;100.00;93488.59;4872179;29;20136;-51
2022/11/15 08:25:43;;;;;;;17.15;9.18;;;;;;;6.23;100.00;93484.22;4876997;29;20057;-56
2022/11/15 08:28:10;;;;;;;17.27;9.30;;;;;;;6.44;100.00;93485.25;4877420;29;20053;-54
2022/11/15 08:30:41;;;;;;;16.67;9.10;;;;;;;6.31;100.00;93479.50;4876567;29;20111;-56
2022/11/15 08:33:13;;;;;;;18.90;9.52;;;;;;;6.52;100.00;93478.59;4894703;29;20045;-54
2022/11/15 08:35:41;;;;;;;20.05;9.70;;;;;;;6.71;100.00;93478.06;4895367;29;20344;-56
2022/11/15 08:38:07;;;;;;;19.70;9.30;;;;;;;6.76;100.00;93479.56;4895819;29;20057;-55
2022/11/15 08:40:35;;;;;;;25.90;12.18;;;;;;;6.46;100.00;93489.16;4906169;29;20055;-55
2022/11/15 08:43:02;;;;;;;16.73;8.20;;;;;;;6.31;100.00;93477.56;4895026;29;20875;-56
2022/11/15 08:45:30;;;;;;;14.55;8.20;;;;;;;6.43;100.00;93472.81;4878881;29;20378;-56
2022/11/15 08:47:57;;;;;;;15.57;8.63;;;;;;;6.51;100.00;93474.31;4895458;29;20052;-54
2022/11/15 08:50:23;;;;;;;14.63;8.18;;;;;;;6.76;100.00;93455.81;4895695;29;20076;-56
2022/11/15 08:52:50;;;;;;;14.15;8.15;;;;;;;6.94;100.00;93468.53;4878273;29;20074;-53
2022/11/15 08:55:17;;;;;;;14.07;8.47;;;;;;;7.08;100.00;93462.16;4878740;29;20123;-52
2022/11/15 08:57:44;;;;;;;15.10;9.32;;;;;;;6.88;100.00;93459.22;4894947;29;20136;-56
2022/11/15 09:00:13;;;;;;;16.85;9.55;;;;;;;7.37;100.00;93457.22;4878656;29;20092;-54
2022/11/15 09:02:40;;;;;;;17.95;9.43;;;;;;;7.72;99.73;93452.53;4894997;29;20052;-56
2022/11/15 09:05:07;;;;;;;16.35;8.93;;;;;;;8.02;98.13;93462.69;4895524;29;20049;-53
2022/11/15 09:07:34;;;;;;;17.37;9.30;;;;;;;8.01;96.49;93458.44;4895062;29;20041;-55
2022/11/15 09:10:01;;;;;;;15.55;8.00;;;;;;;7.99;96.42;93464.28;4894345;29;20582;-53
2022/11/15 09:12:28;;;;;;;13.90;8.02;;;;;;;8.38;96.09;93457.50;4878737;29;20383;-54
2022/11/15 09:14:54;;;;;;;14.63;7.97;;;;;;;9.13;93.68;93455.56;4894679;29;20059;-55
2022/11/15 09:17:21;;;;;;;15.27;7.50;;;;;;;9.31;91.61;93454.50;4895337;29;20052;-55
2022/11/15 09:19:51;;;;;;;10.47;6.60;;;;;;;8.91;90.95;93457.13;4894789;29;20099;-55
2022/11/15 09:22:17;;;;;;;12.90;7.05;;;;;;;9.47;89.51;93451.84;4895653;29;20525;-53
2022/11/15 09:24:44;;;;;;;11.23;7.07;;;;;;;9.96;88.73;93451.28;4894609;29;20057;-55
2022/11/15 09:27:12;;;;;;;12.57;7.70;;;;;;;10.29;87.01;93446.69;4895046;29;20052;-53
2022/11/15 09:29:39;;;;;;;15.65;7.70;;;;;;;10.14;87.19;93450.94;4894623;29;20052;-54
2022/11/15 09:32:05;;;;;;;14.00;6.97;;;;;;;10.03;87.07;93453.13;4894436;29;20052;-56
2022/11/15 09:34:32;;;;;;;12.07;7.28;;;;;;;10.58;85.97;93444.13;4893971;29;20052;-57
2022/11/15 09:36:59;;;;;;;14.35;7.47;;;;;;;10.55;84.38;93446.94;4894223;29;20067;-56
2022/11/15 09:39:25;;;;;;;13.57;7.40;;;;;;;10.28;85.63;93453.41;4896916;29;20048;-55
2022/11/15 09:42:13;;;;;;;11.82;6.55;;;;;;;10.11;86.20;93447.06;4894678;29;20048;-53
2022/11/15 09:44:55;;;;;;;11.63;7.13;;;;;;;10.82;86.52;93448.69;4894337;29;20553;-52
2022/11/15 09:47:28;;;;;;;12.75;7.18;;;;;;;10.90;85.00;93441.81;4894561;29;20049;-54
2022/11/15 09:49:59;;;;;;;13.43;7.40;;;;;;;11.46;81.48;93438.06;4894517;29;20115;-51
2022/11/15 09:52:27;;;;;;;12.25;6.55;;;;;;;11.79;79.43;93424.97;4878105;29;20103;-55
2022/11/15 09:54:54;;;;;;;11.90;6.72;;;;;;;12.48;77.95;93430.09;4894319;29;20049;-53
2022/11/15 09:57:37;;;;;;;11.53;6.97;;;;;;;12.29;76.28;93425.56;4894586;29;20052;-53
2022/11/15 10:00:17;;;;;;;12.63;7.20;;;;;;;11.84;78.84;93424.47;4893827;29;20849;-55
2022/11/15 10:03:11;;;;;;;13.43;7.78;;;;;;;10.67;83.57;93420.81;4893512;29;20052;-55
2022/11/15 10:05:41;;;;;;;14.05;7.80;;;;;;;11.40;82.38;93416.59;4893953;29;20054;-54
2022/11/15 10:08:30;;;;;;;14.48;7.70;;;;;;;10.95;82.88;93417.38;4894167;29;20056;-53
2022/11/15 10:11:01;;;;;;;12.83;7.77;;;;;;;11.14;83.91;93409.44;4894244;29;20058;-54
2022/11/15 10:13:51;;;;;;;13.98;8.60;;;;;;;11.19;83.63;93420.69;4893954;29;20040;-55
2022/11/15 10:16:32;;;;;;;14.23;9.32;;;;;;;11.33;82.58;93418.78;4894133;29;20044;-53
2022/11/15 10:19:25;;;;;;;14.43;7.93;;;;;;;10.90;84.72;93408.88;4894169;29;20053;-52
2022/11/15 10:22:23;;;;;;;15.77;8.57;;;;;;;10.66;86.17;93414.53;4893749;29;20091;-55
2022/11/15 10:24:52;;;;;;;13.40;6.93;;;;;;;10.40;86.37;93413.56;4893157;29;20088;-56
2022/11/15 10:27:19;;;;;;;12.15;6.32;;;;;;;10.25;87.62;93404.09;4894298;29;20128;-54
2022/11/15 10:29:50;;;;;;;12.27;6.90;;;;;;;10.33;87.75;93403.53;4893248;29;20554;-53
2022/11/15 10:32:18;;;;;;;12.90;7.47;;;;;;;10.54;86.98;93401.50;4893779;29;20274;-54
2022/11/15 10:34:47;;;;;;;13.05;6.60;;;;;;;10.56;85.61;93396.34;4893301;29;20072;-53
2022/11/15 10:37:14;;;;;;;11.10;6.70;;;;;;;10.44;87.02;93399.78;4894104;29;20057;-51
2022/11/15 10:39:40;;;;;;;11.60;6.55;;;;;;;10.64;86.83;93388.72;4894440;29;20052;-53
2022/11/15 10:42:25;;;;;;;12.10;6.88;;;;;;;10.83;86.88;93392.59;4893915;29;20565;-54
2022/11/15 10:44:52;;;;;;;12.65;6.60;;;;;;;10.94;85.82;93387.59;4891633;29;20080;-55
2022/11/15 10:47:30;;;;;;;13.35;7.00;;;;;;;10.93;86.24;93386.06;4892389;29;20055;-55
2022/11/15 10:50:29;;;;;;;13.57;6.77;;;;;;;10.92;86.37;93384.50;4893049;29;20750;-54
2022/11/15 10:52:56;;;;;;;13.10;6.95;;;;;;;11.02;86.29;93380.72;4893326;29;20162;-52
2022/11/15 10:55:29;;;;;;;13.57;7.25;;;;;;;11.13;86.71;93372.22;4893562;29;20053;-54
2022/11/15 10:58:03;;;;;;;10.63;6.32;;;;;;;11.15;85.67;93375.31;4876599;29;20052;-56
2022/11/15 11:00:34;;;;;;;11.77;6.00;;;;;;;10.83;86.30;93374.16;4893062;29;20045;-55
2022/11/15 11:03:06;;;;;;;12.70;6.40;;;;;;;10.65;87.03;93374.59;4892531;29;20686;-54
2022/11/15 11:05:37;;;;;;;10.43;5.97;;;;;;;10.54;87.72;93366.63;4893141;29;20060;-52
2022/11/15 11:08:14;;;;;;;10.95;5.82;;;;;;;10.61;87.73;93367.66;4892537;29;21269;-53
2022/11/15 11:10:56;;;;;;;10.63;6.35;;;;;;;10.52;87.94;93360.00;4892767;29;20115;-53
2022/11/15 11:13:32;;;;;;;11.30;6.32;;;;;;;10.69;87.81;93355.28;4893600;29;20055;-51
2022/11/15 11:16:07;;;;;;;13.80;7.37;;;;;;;10.76;88.05;93352.34;4892717;29;20103;-53
2022/11/15 11:18:42;;;;;;;13.40;6.82;;;;;;;11.05;87.18;93352.41;4893226;29;20494;-51
2022/11/15 11:21:13;;;;;;;12.35;6.10;;;;;;;11.09;86.18;93357.81;4892029;29;21529;-52
2022/11/15 11:23:58;;;;;;;11.68;5.90;;;;;;;11.06;86.66;93337.47;4892082;29;20056;-55
2022/11/15 11:27:06;;;;;;;12.25;6.47;;;;;;;10.82;87.05;93341.63;4876588;29;20092;-50
2022/11/15 11:30:02;;;;;;;13.47;6.37;;;;;;;10.93;88.40;93342.13;4892149;29;21602;-52
2022/11/15 11:33:07;;;;;;;11.40;6.43;;;;;;;11.03;87.52;93343.03;4892105;29;20411;-53
2022/11/15 11:35:49;;;;;;;12.93;6.95;;;;;;;11.03;88.39;93341.09;4852365;29;20965;-51
2022/11/15 11:38:47;;;;;;;14.93;8.70;;;;;;;10.93;88.95;93333.91;4892153;29;20052;-53
2022/11/15 11:41:38;;;;;;;12.88;7.60;;;;;;;10.89;89.65;93336.75;4888874;29;20049;-53
2022/11/15 11:44:28;;;;;;;11.83;7.07;;;;;;;10.94;90.20;93335.44;4892313;29;20707;-53
2022/11/15 11:47:20;;;;;;;13.07;7.63;;;;;;;10.91;89.89;93331.59;4892238;29;20043;-53
2022/11/15 11:49:53;;;;;;;11.60;6.93;;;;;;;10.74;90.26;93330.81;4892399;29;20458;-52
2022/11/15 11:52:47;;;;;;;13.48;7.18;;;;;;;10.84;90.66;93336.47;4892993;29;20075;-53
2022/11/15 11:55:23;;;;;;;12.55;6.10;;;;;;;10.84;90.01;93331.00;4892300;29;21278;-53
2022/11/15 11:58:14;;;;;;;11.90;6.93;;;;;;;10.67;90.64;93320.03;4894048;29;20045;-53